Time;durP1;ratioP1;P1;durP2;ratioP2;P2;SDS_P1;SDS_P2;PMS_P1;PMS_P2;Temp;Humidity;BMP_temperature;BMP_pressure;BME280_temperature;BME280_humidity;BME280_pressure;Samples;Min_cycle;Max_cycle;Signal;HPM_P1;HPM_P2
2023/05/17 00:00:08;;;;;;;2.43;1.47;;;7.40;99.90;;;;;;5101321;28;20911;-47
2023/05/17 00:02:34;;;;;;;5.80;1.50;;;7.40;99.90;;;;;;5101288;28;20461;-44
2023/05/17 00:05:00;;;;;;;2.30;1.27;;;7.40;99.90;;;;;;5101174;28;20788;-45
2023/05/17 00:07:26;;;;;;;2.53;1.67;;;7.30;99.90;;;;;;5101587;28;20491;-45
2023/05/17 00:09:51;;;;;;;3.60;1.43;;;7.30;99.90;;;;;;5099806;28;20491;-45
2023/05/17 00:12:17;;;;;;;2.90;1.73;;;7.40;99.90;;;;;;5100996;28;20281;-45
2023/05/17 00:14:42;;;;;;;6.33;1.50;;;7.30;99.90;;;;;;5101531;28;20470;-45
2023/05/17 00:17:08;;;;;;;4.70;1.30;;;7.30;99.90;;;;;;5100968;28;20185;-46
2023/05/17 00:19:33;;;;;;;5.00;1.77;;;7.30;99.90;;;;;;5100045;28;20577;-45
2023/05/17 00:21:59;;;;;;;2.60;1.50;;;7.30;99.90;;;;;;5101031;28;20184;-46
2023/05/17 00:24:26;;;;;;;4.47;1.67;;;7.30;99.90;;;;;;5099243;28;20211;-47
2023/05/17 00:26:51;;;;;;;5.57;1.80;;;7.20;99.90;;;;;;5099804;28;20267;-44
2023/05/17 00:29:17;;;;;;;3.10;1.40;;;7.20;99.90;;;;;;5100435;28;20509;-47
2023/05/17 00:31:42;;;;;;;2.50;1.50;;;7.20;99.90;;;;;;5100800;28;20204;-46
2023/05/17 00:34:08;;;;;;;3.77;1.60;;;7.20;1.00;;;;;;5098933;28;20225;-44
2023/05/17 00:36:34;;;;;;;3.10;1.40;;;7.20;1.00;;;;;;5099372;28;20203;-46
2023/05/17 00:38:59;;;;;;;2.13;1.37;;;7.20;1.00;;;;;;5098571;28;20176;-44
2023/05/17 00:41:25;;;;;;;6.43;2.47;;;7.20;1.00;;;;;;5099411;28;20184;-46
2023/05/17 00:43:51;;;;;;;2.50;1.20;;;7.10;1.00;;;;;;5100652;28;20419;-44
2023/05/17 00:46:16;;;;;;;4.07;1.50;;;7.10;1.00;;;;;;5100609;28;20177;-45
2023/05/17 00:48:42;;;;;;;6.03;1.40;;;7.10;1.00;;;;;;5099733;28;20600;-47
2023/05/17 00:51:08;;;;;;;1.80;1.20;;;7.10;1.00;;;;;;5099102;28;20226;-45
2023/05/17 00:53:35;;;;;;;3.63;1.80;;;7.10;1.00;;;;;;5100098;28;20550;-44
2023/05/17 00:56:01;;;;;;;6.50;1.83;;;7.10;1.00;;;;;;5100009;28;20168;-45
2023/05/17 00:58:27;;;;;;;1.67;1.53;;;7.10;1.00;;;;;;5100191;28;20418;-45
2023/05/17 01:00:53;;;;;;;3.10;1.60;;;7.00;1.00;;;;;;5098708;28;20829;-46
2023/05/17 01:03:21;;;;;;;3.53;1.80;;;7.00;1.00;;;;;;5100225;28;20181;-45
2023/05/17 01:05:47;;;;;;;2.60;1.30;;;7.00;1.00;;;;;;5099219;28;20590;-45
2023/05/17 01:08:13;;;;;;;3.10;1.53;;;6.90;1.00;;;;;;5100259;28;20426;-46
2023/05/17 01:10:43;;;;;;;3.87;1.40;;;6.90;1.00;;;;;;5098627;28;20517;-45
2023/05/17 01:13:16;;;;;;;3.80;2.00;;;6.90;1.00;;;;;;5098914;28;20164;-44
2023/05/17 01:15:46;;;;;;;3.07;1.40;;;6.90;54.60;;;;;;5099803;28;20483;-46
2023/05/17 01:18:19;;;;;;;3.17;1.57;;;6.90;99.90;;;;;;5099854;28;20417;-46
2023/05/17 01:20:46;;;;;;;10.30;1.60;;;6.90;99.90;;;;;;5099654;28;20440;-44
2023/05/17 01:23:30;;;;;;;2.33;1.80;;;6.90;99.90;;;;;;5098479;28;20414;-44
2023/05/17 01:26:10;;;;;;;5.43;1.97;;;6.90;99.90;;;;;;5099168;28;20413;-49
2023/05/17 01:28:39;;;;;;;5.93;1.87;;;6.90;99.90;;;;;;5099874;28;20468;-46
2023/05/17 01:31:07;;;;;;;2.23;1.10;;;6.90;99.90;;;;;;5097915;28;20508;-46
2023/05/17 01:33:33;;;;;;;5.60;1.87;;;6.90;99.90;;;;;;5098545;28;20417;-45
2023/05/17 01:35:58;;;;;;;6.70;1.47;;;6.90;99.90;;;;;;5099000;28;20422;-57
2023/05/17 01:38:24;;;;;;;3.67;1.80;;;6.90;99.90;;;;;;5098861;28;20211;-47
2023/05/17 01:41:13;;;;;;;3.77;1.63;;;6.90;99.90;;;;;;5099501;28;20207;-45
2023/05/17 01:44:12;;;;;;;2.40;1.47;;;6.90;99.90;;;;;;5099485;28;20241;-45
2023/05/17 01:46:42;;;;;;;7.40;1.77;;;6.90;99.90;;;;;;5097817;28;20430;-44
2023/05/17 01:49:24;;;;;;;4.13;2.00;;;6.90;99.90;;;;;;5097582;28;20641;-46
2023/05/17 01:52:11;;;;;;;2.80;1.70;;;6.90;99.90;;;;;;5097799;28;20469;-45
2023/05/17 01:55:05;;;;;;;4.50;2.10;;;6.90;99.90;;;;;;5099150;28;20422;-47
2023/05/17 01:57:34;;;;;;;5.77;1.57;;;6.80;99.90;;;;;;5098110;28;20433;-44
2023/05/17 02:00:05;;;;;;;5.03;1.80;;;6.90;1.00;;;;;;5099045;28;20761;-46
2023/05/17 02:02:30;;;;;;;3.73;1.87;;;6.90;99.90;;;;;;5098347;28;20430;-44
2023/05/17 02:04:57;;;;;;;4.00;1.47;;;6.80;1.00;;;;;;5097700;28;20814;-47
2023/05/17 02:07:22;;;;;;;3.43;1.90;;;6.80;1.00;;;;;;5097544;28;20269;-44
2023/05/17 02:09:48;;;;;;;2.80;1.30;;;6.80;1.00;;;;;;5098081;28;20455;-46
2023/05/17 02:12:14;;;;;;;3.37;1.50;;;6.70;1.00;;;;;;5098967;28;20212;-45
2023/05/17 02:14:39;;;;;;;4.73;1.57;;;6.70;16.50;;;;;;5097922;28;20344;-45
2023/05/17 02:17:05;;;;;;;2.97;1.50;;;6.70;99.90;;;;;;5096878;28;20310;-45
2023/05/17 02:19:31;;;;;;;3.80;1.60;;;6.60;99.90;;;;;;5097536;28;20185;-45
2023/05/17 02:25:18;;;;;;;2.33;1.50;;;6.70;99.90;;;;;;5095811;28;20402;-47
2023/05/17 02:27:44;;;;;;;5.87;2.10;;;6.60;99.90;;;;;;5096757;28;20478;-46
2023/05/17 02:30:10;;;;;;;3.50;1.27;;;6.60;99.90;;;;;;5097794;28;20187;-44
2023/05/17 02:32:37;;;;;;;3.63;1.33;;;6.60;99.90;;;;;;5096742;28;20216;-44
2023/05/17 02:35:03;;;;;;;3.03;2.00;;;6.60;99.90;;;;;;5097283;28;20513;-44
2023/05/17 02:37:29;;;;;;;3.60;1.87;;;6.60;99.90;;;;;;5097173;28;20518;-47
2023/05/17 02:39:54;;;;;;;2.90;1.67;;;6.60;1.00;;;;;;5095824;28;20191;-44
2023/05/17 02:42:20;;;;;;;4.20;2.33;;;6.60;99.90;;;;;;5096281;28;20179;-45
2023/05/17 02:44:51;;;;;;;2.90;1.57;;;6.60;1.00;;;;;;5096314;28;20231;-45
2023/05/17 02:47:17;;;;;;;3.50;1.67;;;6.60;1.00;;;;;;5096772;28;20206;-45
2023/05/17 02:49:43;;;;;;;2.70;1.43;;;6.60;1.00;;;;;;5097725;28;20440;-44
2023/05/17 02:52:09;;;;;;;4.10;1.43;;;6.50;1.00;;;;;;5097556;28;20462;-44
2023/05/17 02:54:34;;;;;;;2.60;1.47;;;6.50;1.00;;;;;;5084546;28;20184;-47
2023/05/17 02:57:00;;;;;;;2.70;1.90;;;6.50;1.00;;;;;;5098162;28;20168;-43
2023/05/17 02:59:25;;;;;;;4.10;1.93;;;6.50;99.90;;;;;;5097681;28;20177;-45
2023/05/17 03:01:51;;;;;;;4.70;1.80;;;6.50;99.90;;;;;;5098235;28;20176;-47
2023/05/17 03:04:19;;;;;;;5.40;1.90;;;6.50;99.90;;;;;;5097291;28;20589;-44
2023/05/17 03:06:44;;;;;;;3.60;1.83;;;6.50;99.90;;;;;;5096390;28;20184;-45
2023/05/17 03:09:10;;;;;;;3.30;1.63;;;6.50;99.90;;;;;;5096318;28;20414;-43
2023/05/17 03:11:36;;;;;;;4.23;1.50;;;6.40;99.90;;;;;;5097783;28;20325;-45
2023/05/17 03:14:01;;;;;;;2.33;1.50;;;6.40;99.90;;;;;;5098336;28;20451;-45
2023/05/17 03:16:27;;;;;;;5.37;1.53;;;6.40;99.90;;;;;;5097537;28;20441;-45
2023/05/17 03:18:54;;;;;;;3.57;1.73;;;6.40;1.00;;;;;;5096995;28;20180;-45
2023/05/17 03:21:19;;;;;;;7.57;2.17;;;6.40;1.00;;;;;;5094839;28;20184;-46
2023/05/17 03:23:45;;;;;;;3.33;2.00;;;6.30;1.00;;;;;;5097979;28;20851;-45
2023/05/17 03:26:10;;;;;;;2.70;1.40;;;6.30;1.00;;;;;;5097474;28;20191;-44
2023/05/17 03:28:36;;;;;;;2.27;1.97;;;6.30;1.00;;;;;;5096603;28;20622;-46
2023/05/17 03:31:02;;;;;;;4.00;1.70;;;6.30;1.00;;;;;;5096844;28;20204;-45
2023/05/17 03:33:27;;;;;;;4.73;2.10;;;6.30;39.20;;;;;;5096720;28;20541;-43
2023/05/17 03:35:53;;;;;;;5.40;2.00;;;6.20;99.90;;;;;;5096820;28;20173;-45
2023/05/17 03:38:18;;;;;;;4.47;1.90;;;6.20;99.90;;;;;;5095408;28;20504;-44
2023/05/17 03:40:44;;;;;;;6.10;2.03;;;6.20;1.00;;;;;;5095145;28;20173;-44
2023/05/17 03:43:10;;;;;;;6.37;1.90;;;6.10;1.00;;;;;;5093274;28;20267;-46
2023/05/17 03:45:35;;;;;;;6.60;2.40;;;6.10;1.00;;;;;;5095313;28;20542;-45
2023/05/17 03:48:01;;;;;;;5.20;2.20;;;6.10;1.00;;;;;;5094729;28;20211;-46
2023/05/17 03:50:26;;;;;;;3.17;1.80;;;6.10;1.00;;;;;;5095939;28;20184;-45
2023/05/17 03:52:52;;;;;;;4.67;1.83;;;6.10;27.80;;;;;;5096261;28;20220;-44
2023/05/17 03:55:17;;;;;;;2.93;1.80;;;6.00;99.90;;;;;;5097266;28;20565;-44
2023/05/17 03:57:43;;;;;;;5.13;2.07;;;6.00;99.90;;;;;;5099587;28;20271;-46
2023/05/17 04:00:10;;;;;;;4.27;2.10;;;5.90;99.90;;;;;;5101147;28;20165;-46
2023/05/17 04:02:36;;;;;;;5.63;2.00;;;5.90;1.00;;;;;;5100812;28;20279;-45
2023/05/17 04:05:02;;;;;;;4.30;1.80;;;5.90;71.40;;;;;;5098669;28;20521;-45
2023/05/17 04:07:28;;;;;;;2.50;1.77;;;5.80;99.90;;;;;;5099451;28;20521;-44
2023/05/17 04:09:58;;;;;;;3.93;2.20;;;5.80;99.90;;;;;;5100390;28;20177;-44
2023/05/17 04:12:23;;;;;;;3.80;2.30;;;5.80;1.00;;;;;;5099793;28;20204;-43
2023/05/17 04:14:49;;;;;;;5.13;2.93;;;5.80;1.00;;;;;;5099444;28;20410;-44
2023/05/17 04:17:15;;;;;;;4.53;2.57;;;5.80;1.00;;;;;;5095944;28;20229;-43
2023/05/17 04:19:40;;;;;;;2.30;2.10;;;5.80;1.00;;;;;;5097300;28;20181;-42
2023/05/17 04:22:06;;;;;;;7.70;3.30;;;5.80;1.00;;;;;;5097548;28;20182;-44
2023/05/17 04:24:32;;;;;;;5.30;3.40;;;5.80;1.00;;;;;;5095745;28;20199;-46
2023/05/17 04:26:58;;;;;;;4.80;2.67;;;5.80;1.00;;;;;;5094981;28;20184;-44
2023/05/17 04:29:24;;;;;;;3.30;2.70;;;5.80;1.00;;;;;;5094972;28;20234;-44
2023/05/17 04:31:50;;;;;;;5.17;3.00;;;5.80;99.90;;;;;;5096025;28;20553;-45
2023/05/17 04:34:15;;;;;;;5.30;3.07;;;5.80;99.90;;;;;;5096433;28;21030;-44
2023/05/17 04:36:41;;;;;;;6.40;4.40;;;5.80;99.90;;;;;;5096251;28;20426;-43
2023/05/17 04:39:08;;;;;;;7.73;5.57;;;5.80;99.90;;;;;;5087573;28;20316;-44
2023/05/17 04:41:33;;;;;;;7.03;4.87;;;5.90;99.90;;;;;;5087534;28;20430;-46
2023/05/17 04:43:59;;;;;;;10.93;4.90;;;5.90;99.90;;;;;;5097134;28;20878;-45
2023/05/17 04:46:25;;;;;;;7.60;3.60;;;6.00;99.90;;;;;;5097393;28;20247;-44
2023/05/17 04:48:52;;;;;;;5.27;3.43;;;6.00;99.90;;;;;;5097453;28;20552;-45
2023/05/17 04:51:17;;;;;;;4.20;3.10;;;6.10;99.90;;;;;;5098192;28;20537;-45
2023/05/17 04:53:43;;;;;;;6.60;3.37;;;6.10;99.90;;;;;;5096351;28;20407;-45
2023/05/17 04:56:08;;;;;;;4.13;3.40;;;6.20;74.60;;;;;;5095428;28;20225;-46
2023/05/17 04:58:34;;;;;;;4.43;3.03;;;6.20;60.30;;;;;;5095721;28;20235;-46
2023/05/17 05:00:59;;;;;;;6.07;3.37;;;6.30;16.00;;;;;;5096188;28;20291;-45
2023/05/17 05:03:25;;;;;;;4.63;3.63;;;6.30;9.70;;;;;;5096215;28;20172;-44
2023/05/17 05:05:51;;;;;;;6.40;3.87;;;6.30;1.00;;;;;;5096898;28;20176;-43
2023/05/17 05:08:16;;;;;;;6.97;3.60;;;6.30;1.00;;;;;;5094747;28;20173;-44
2023/05/17 05:10:42;;;;;;;5.43;3.60;;;6.40;1.00;;;;;;5095570;28;20465;-45
2023/05/17 05:13:07;;;;;;;4.93;3.60;;;6.50;1.00;;;;;;5094894;28;20260;-46
2023/05/17 05:15:33;;;;;;;5.17;3.53;;;6.60;1.00;;;;;;5094791;28;20298;-44
2023/05/17 05:17:58;;;;;;;4.30;3.60;;;6.70;99.90;;;;;;5095920;28;20342;-45
2023/05/17 05:20:24;;;;;;;6.17;3.60;;;6.80;1.00;;;;;;5093018;28;20215;-45
2023/05/17 05:22:50;;;;;;;5.10;3.03;;;6.80;1.00;;;;;;5090711;28;20184;-46
2023/05/17 05:25:16;;;;;;;4.50;3.07;;;6.80;1.00;;;;;;5095728;28;20168;-46
2023/05/17 05:27:41;;;;;;;3.60;2.83;;;6.90;1.00;;;;;;5095576;28;20673;-44
2023/05/17 05:30:07;;;;;;;3.90;2.90;;;7.00;99.90;;;;;;5093302;28;20191;-45
2023/05/17 05:32:33;;;;;;;7.87;3.70;;;7.00;1.00;;;;;;5091897;28;20281;-44
2023/05/17 05:34:59;;;;;;;7.00;3.43;;;7.10;99.90;;;;;;5095970;28;20823;-46
2023/05/17 05:37:24;;;;;;;5.93;2.77;;;7.20;99.90;;;;;;5094571;28;20528;-45
2023/05/17 05:39:50;;;;;;;3.43;3.07;;;7.40;57.40;;;;;;5095398;28;20192;-45
2023/05/17 05:42:16;;;;;;;7.60;3.33;;;7.50;1.00;;;;;;5096615;28;20685;-44
2023/05/17 05:44:41;;;;;;;5.37;3.60;;;7.70;1.00;;;;;;5095821;28;20187;-45
2023/05/17 05:47:07;;;;;;;4.73;2.80;;;7.80;99.90;;;;;;5092200;28;20555;-47
2023/05/17 05:49:32;;;;;;;3.80;2.43;;;8.10;1.00;;;;;;5091750;28;20198;-46
2023/05/17 05:51:58;;;;;;;7.33;2.60;;;8.10;99.90;;;;;;5093966;28;20219;-49
2023/05/17 05:54:23;;;;;;;4.67;2.53;;;8.30;99.90;;;;;;5095093;28;20282;-46
2023/05/17 05:56:50;;;;;;;3.40;2.20;;;8.40;99.90;;;;;;5095066;28;20184;-46
2023/05/17 05:59:15;;;;;;;4.00;2.20;;;8.60;9.90;;;;;;5095078;28;20196;-46
2023/05/17 06:01:41;;;;;;;8.70;3.07;;;8.70;1.00;;;;;;5095066;28;20473;-46
2023/05/17 06:04:07;;;;;;;4.87;2.67;;;8.90;1.00;;;;;;5095682;28;20180;-48
2023/05/17 06:06:32;;;;;;;3.47;1.90;;;9.00;99.90;;;;;;5095912;28;20188;-45
2023/05/17 06:08:58;;;;;;;5.00;2.20;;;9.10;99.90;;;;;;5095269;28;20181;-45
2023/05/17 06:11:24;;;;;;;3.77;2.20;;;9.30;1.90;;;;;;5095948;28;20220;-44
2023/05/17 06:13:50;;;;;;;3.37;1.90;;;9.40;1.00;;;;;;5096536;28;20252;-45
2023/05/17 06:16:16;;;;;;;5.13;2.10;;;9.50;1.00;;;;;;5096268;28;20419;-48
2023/05/17 06:18:41;;;;;;;3.70;2.20;;;9.60;1.00;;;;;;5095586;28;20187;-46
2023/05/17 06:21:07;;;;;;;4.80;2.70;;;9.80;99.90;;;;;;5094956;28;20184;-44
2023/05/17 06:23:32;;;;;;;4.73;2.40;;;10.00;99.90;;;;;;5095102;28;20180;-45
2023/05/17 06:25:58;;;;;;;4.77;2.40;;;10.10;40.80;;;;;;5093867;28;20172;-48
2023/05/17 06:28:23;;;;;;;7.30;3.60;;;10.20;26.00;;;;;;5095137;28;20236;-46
2023/05/17 06:30:49;;;;;;;3.67;2.40;;;10.40;6.90;;;;;;5094908;28;20297;-47
2023/05/17 06:33:15;;;;;;;6.20;2.90;;;10.50;1.00;;;;;;5095732;28;20231;-46
2023/05/17 06:35:40;;;;;;;5.60;2.77;;;10.70;1.00;;;;;;5096175;28;20252;-47
2023/05/17 06:38:06;;;;;;;5.97;2.83;;;10.80;1.00;;;;;;5095026;28;20554;-46
2023/05/17 06:40:31;;;;;;;7.27;2.60;;;10.90;1.00;;;;;;5093689;28;20207;-44
2023/05/17 06:42:57;;;;;;;4.43;2.40;;;11.00;1.00;;;;;;5095871;28;20237;-46
2023/05/17 06:45:23;;;;;;;7.00;2.80;;;11.20;99.90;;;;;;5095852;28;20172;-47
2023/05/17 06:47:48;;;;;;;5.87;2.90;;;11.30;99.90;;;;;;5095913;28;20187;-47
2023/05/17 06:50:14;;;;;;;3.20;2.63;;;11.30;99.90;;;;;;5094658;28;20184;-46
2023/05/17 06:52:40;;;;;;;6.00;2.63;;;11.20;99.90;;;;;;5094136;28;20242;-48
2023/05/17 06:55:06;;;;;;;7.87;3.40;;;11.20;99.90;;;;;;5095766;28;20255;-46
2023/05/17 06:57:32;;;;;;;7.30;3.80;;;11.10;99.90;;;;;;5094625;28;20542;-46
2023/05/17 06:59:57;;;;;;;8.63;3.67;;;11.10;99.90;;;;;;5093440;28;20493;-44
2023/05/17 07:02:23;;;;;;;7.23;2.93;;;11.20;99.90;;;;;;5094219;28;20196;-47
2023/05/17 07:04:49;;;;;;;7.13;3.40;;;11.10;99.90;;;;;;5095427;28;20208;-49
2023/05/17 07:07:14;;;;;;;7.63;3.00;;;11.10;99.90;;;;;;5096400;28;20183;-45
2023/05/17 07:09:40;;;;;;;7.10;3.33;;;11.20;99.90;;;;;;5095121;28;20180;-45
2023/05/17 07:12:06;;;;;;;4.60;3.17;;;11.20;99.90;;;;;;5095485;28;20250;-46
2023/05/17 07:14:32;;;;;;;4.90;3.27;;;11.30;99.90;;;;;;5095618;28;20246;-46
2023/05/17 07:16:57;;;;;;;5.23;3.33;;;11.40;99.90;;;;;;5076087;28;20438;-45
2023/05/17 07:19:25;;;;;;;3.97;2.93;;;11.60;99.90;;;;;;5091244;28;20181;-44
2023/05/17 07:21:50;;;;;;;4.90;3.20;;;11.80;99.90;;;;;;5092725;28;20184;-46
2023/05/17 07:24:16;;;;;;;5.40;3.33;;;11.90;99.90;;;;;;5091615;28;20428;-45
2023/05/17 07:26:42;;;;;;;7.93;2.77;;;12.10;99.90;;;;;;5094343;28;20656;-44
2023/05/17 07:29:07;;;;;;;6.83;4.40;;;12.20;99.90;;;;;;5093496;28;20243;-46
2023/05/17 07:31:33;;;;;;;5.97;4.10;;;12.50;99.90;;;;;;5093409;28;20200;-48
2023/05/17 07:33:58;;;;;;;5.10;3.00;;;12.70;94.20;;;;;;5098054;28;20442;-48
2023/05/17 07:36:26;;;;;;;5.33;3.57;;;13.00;59.60;;;;;;5097734;28;20176;-46
2023/05/17 07:38:52;;;;;;;6.90;3.23;;;13.00;52.90;;;;;;5097520;28;20249;-47
2023/05/17 07:41:21;;;;;;;6.50;3.37;;;13.00;44.80;;;;;;5098176;28;20422;-45
2023/05/17 07:43:46;;;;;;;4.00;2.97;;;13.00;26.70;;;;;;5098655;28;20425;-46
2023/05/17 07:46:12;;;;;;;7.80;3.07;;;13.20;12.40;;;;;;5097282;28;20418;-46
2023/05/17 07:48:37;;;;;;;5.93;3.87;;;13.40;10.90;;;;;;5098254;28;20538;-46
2023/05/17 07:51:03;;;;;;;6.43;3.43;;;13.50;1.00;;;;;;5097627;28;20180;-46
2023/05/17 07:53:29;;;;;;;5.03;3.50;;;13.50;1.00;;;;;;5099527;28;20183;-48
2023/05/17 07:55:54;;;;;;;4.00;3.27;;;13.40;1.00;;;;;;5098493;28;20179;-45
2023/05/17 07:58:20;;;;;;;7.83;4.43;;;13.40;1.00;;;;;;5099691;28;20177;-45
2023/05/17 08:00:45;;;;;;;5.60;4.30;;;13.30;1.00;;;;;;5097307;28;20180;-49
2023/05/17 08:03:11;;;;;;;12.00;3.90;;;13.40;1.00;;;;;;5098084;28;20447;-45
2023/05/17 08:05:37;;;;;;;6.77;3.73;;;13.50;1.00;;;;;;5096136;28;20255;-46
2023/05/17 08:08:02;;;;;;;6.77;4.20;;;13.60;1.00;;;;;;5096514;28;20169;-46
2023/05/17 08:10:28;;;;;;;7.80;4.20;;;13.50;1.00;;;;;;5096272;28;20358;-48
2023/05/17 08:12:54;;;;;;;5.30;3.80;;;13.50;1.00;;;;;;5097853;28;20204;-48
2023/05/17 08:15:21;;;;;;;4.60;3.47;;;13.30;1.00;;;;;;5095987;28;20625;-46
2023/05/17 08:17:46;;;;;;;7.73;3.33;;;13.20;1.00;;;;;;5095901;28;20900;-45
2023/05/17 08:20:12;;;;;;;4.70;3.27;;;13.60;1.00;;;;;;5097361;28;20414;-46
2023/05/17 08:22:38;;;;;;;11.13;3.80;;;14.00;1.00;;;;;;5096995;28;20184;-44
2023/05/17 08:25:03;;;;;;;5.80;4.40;;;14.40;1.00;;;;;;5098341;28;20176;-48
2023/05/17 08:27:31;;;;;;;5.53;3.70;;;14.90;1.00;;;;;;5098990;28;20184;-45
2023/05/17 08:29:56;;;;;;;7.57;3.90;;;15.30;1.00;;;;;;5097397;28;20181;-46
2023/05/17 08:32:23;;;;;;;6.27;3.23;;;15.70;1.00;;;;;;5096680;28;20462;-47
2023/05/17 08:34:48;;;;;;;10.73;3.60;;;16.00;1.00;;;;;;5096979;28;20168;-45
2023/05/17 08:37:14;;;;;;;9.97;3.80;;;16.10;1.00;;;;;;5097332;28;20445;-46
2023/05/17 08:39:40;;;;;;;11.60;4.40;;;16.00;1.00;;;;;;5080296;28;20526;-54
2023/05/17 08:42:09;;;;;;;5.10;4.30;;;15.90;1.00;;;;;;5098554;28;20176;-45
2023/05/17 08:44:35;;;;;;;4.97;3.90;;;16.10;1.00;;;;;;5096349;28;20180;-45
2023/05/17 08:47:02;;;;;;;5.30;3.80;;;16.20;1.00;;;;;;5098237;28;20422;-45
2023/05/17 08:49:32;;;;;;;4.70;3.40;;;16.20;1.00;;;;;;5097820;28;20180;-46
2023/05/17 08:51:59;;;;;;;7.23;4.03;;;16.30;1.00;;;;;;5094444;28;20558;-46
2023/05/17 08:54:25;;;;;;;6.93;3.90;;;16.30;1.00;;;;;;5095445;28;20521;-46
2023/05/17 08:56:57;;;;;;;7.20;4.40;;;16.20;1.00;;;;;;5099928;28;20457;-46
2023/05/17 08:59:25;;;;;;;5.60;4.03;;;16.40;1.00;;;;;;5099361;28;20520;-46
2023/05/17 09:01:53;;;;;;;5.03;3.67;;;16.70;1.00;;;;;;5098510;28;20487;-45
2023/05/17 09:04:19;;;;;;;11.30;3.57;;;17.00;1.00;;;;;;5099319;28;20500;-48
2023/05/17 09:06:45;;;;;;;6.13;3.73;;;17.20;1.00;;;;;;5097415;28;20426;-46
2023/05/17 09:09:11;;;;;;;9.00;4.70;;;17.10;1.00;;;;;;5095978;28;20419;-46
2023/05/17 09:11:37;;;;;;;6.40;4.13;;;17.00;1.00;;;;;;5098371;28;20526;-44
2023/05/17 09:14:04;;;;;;;5.93;4.63;;;16.90;1.00;;;;;;5098856;28;20172;-45
2023/05/17 09:16:32;;;;;;;5.60;3.87;;;16.80;1.00;;;;;;5098054;28;20418;-45
2023/05/17 09:18:58;;;;;;;4.53;4.10;;;16.60;1.00;;;;;;5096531;28;20423;-46
2023/05/17 09:21:25;;;;;;;5.30;4.50;;;16.90;1.00;;;;;;5095047;28;20430;-47
2023/05/17 09:23:52;;;;;;;7.90;5.13;;;17.00;1.00;;;;;;5097285;28;20843;-48
2023/05/17 09:26:18;;;;;;;4.80;3.87;;;17.10;1.00;;;;;;5095915;28;20468;-46
2023/05/17 09:28:44;;;;;;;7.13;4.20;;;17.10;1.00;;;;;;5095137;28;20485;-45
2023/05/17 09:31:12;;;;;;;8.33;4.80;;;16.90;1.00;;;;;;5096969;28;20426;-45
2023/05/17 09:33:45;;;;;;;7.20;3.83;;;16.80;1.00;;;;;;5095681;28;20646;-45
2023/05/17 09:36:22;;;;;;;6.37;4.00;;;16.40;1.00;;;;;;5097635;28;20418;-48
2023/05/17 09:39:04;;;;;;;7.33;3.10;;;16.30;1.00;;;;;;5097680;28;20437;-46
2023/05/17 09:41:41;;;;;;;5.93;3.50;;;16.40;1.00;;;;;;5096296;28;20457;-47
2023/05/17 09:44:11;;;;;;;6.37;3.80;;;16.50;1.00;;;;;;5097407;28;20423;-47
2023/05/17 09:46:46;;;;;;;6.43;3.93;;;16.60;1.00;;;;;;5097799;28;20457;-45
2023/05/17 09:49:12;;;;;;;6.10;3.80;;;16.40;1.00;;;;;;5096324;28;20426;-48
2023/05/17 09:51:43;;;;;;;6.00;3.10;;;16.20;1.00;;;;;;5095961;28;20462;-45
2023/05/17 09:54:10;;;;;;;6.33;3.90;;;16.20;1.00;;;;;;5095951;28;20414;-47
2023/05/17 09:56:37;;;;;;;5.83;3.80;;;16.50;1.00;;;;;;5096245;28;20418;-44
2023/05/17 09:59:04;;;;;;;9.33;3.40;;;17.00;1.00;;;;;;5094014;28;20785;-47
2023/05/17 10:01:30;;;;;;;4.80;3.47;;;17.30;1.00;;;;;;5093700;28;20437;-46
2023/05/17 10:04:02;;;;;;;6.60;3.83;;;17.80;1.00;;;;;;5093661;28;20464;-46
2023/05/17 10:06:29;;;;;;;4.70;3.50;;;18.50;1.00;;;;;;5077051;28;20441;-46
2023/05/17 10:08:57;;;;;;;4.47;3.23;;;18.50;1.00;;;;;;5093969;28;20414;-46
2023/05/17 10:11:33;;;;;;;4.33;3.50;;;19.10;1.00;;;;;;5094166;28;20470;-46
2023/05/17 10:14:12;;;;;;;5.60;3.50;;;19.50;1.00;;;;;;5090566;28;20406;-46
2023/05/17 10:16:38;;;;;;;5.10;3.50;;;20.00;1.00;;;;;;5093710;28;21011;-46
2023/05/17 10:19:04;;;;;;;5.93;3.97;;;20.20;1.00;;;;;;5092863;28;20565;-46
2023/05/17 10:21:31;;;;;;;3.77;3.10;;;20.00;1.00;;;;;;5095265;28;20487;-47
2023/05/17 10:24:02;;;;;;;5.60;3.30;;;19.60;1.00;;;;;;5093577;28;20410;-46
2023/05/17 10:26:28;;;;;;;4.40;3.47;;;19.40;1.00;;;;;;5095399;28;20826;-47
2023/05/17 10:29:01;;;;;;;5.10;3.77;;;19.40;1.00;;;;;;5094662;28;20459;-48
2023/05/17 10:31:31;;;;;;;4.23;3.43;;;19.00;1.00;;;;;;5095844;28;20473;-46
2023/05/17 10:33:59;;;;;;;5.43;3.83;;;18.50;1.00;;;;;;5094645;28;20441;-48
2023/05/17 10:36:26;;;;;;;6.77;3.60;;;18.40;1.00;;;;;;5094716;28;20515;-47
2023/05/17 10:38:52;;;;;;;6.10;4.30;;;18.90;1.00;;;;;;5094332;28;20430;-47
2023/05/17 10:41:20;;;;;;;5.10;4.10;;;19.50;1.00;;;;;;5095074;28;20189;-46
2023/05/17 10:43:46;;;;;;;5.47;3.67;;;19.80;1.00;;;;;;5096581;28;20410;-46
2023/05/17 10:46:14;;;;;;;4.40;3.23;;;19.80;1.00;;;;;;5094749;28;20430;-47
2023/05/17 10:48:40;;;;;;;6.17;3.70;;;19.60;1.00;;;;;;5094711;28;20551;-46
2023/05/17 10:51:06;;;;;;;5.80;3.50;;;19.30;1.00;;;;;;5094594;28;20831;-46
2023/05/17 10:53:32;;;;;;;6.07;4.13;;;19.00;1.00;;;;;;5095274;28;20695;-45
2023/05/17 10:55:58;;;;;;;6.33;4.13;;;18.70;1.00;;;;;;5093639;28;20525;-47
2023/05/17 10:58:27;;;;;;;4.80;3.03;;;18.40;1.00;;;;;;5094413;28;20180;-43
2023/05/17 11:00:53;;;;;;;9.13;3.97;;;18.20;1.00;;;;;;5091529;28;20189;-50
2023/05/17 11:03:29;;;;;;;6.20;4.27;;;18.10;1.00;;;;;;5092849;28;20479;-47
2023/05/17 11:06:10;;;;;;;6.90;4.17;;;18.10;1.00;;;;;;5092352;28;20421;-51
2023/05/17 11:08:36;;;;;;;6.47;4.23;;;18.10;1.00;;;;;;5094802;28;20481;-48
2023/05/17 11:11:09;;;;;;;12.43;3.20;;;18.10;1.00;;;;;;5094392;28;20532;-48
2023/05/17 11:13:53;;;;;;;7.43;4.33;;;18.00;1.00;;;;;;5094305;28;20743;-46
2023/05/17 11:16:26;;;;;;;6.50;3.83;;;17.70;1.00;;;;;;5094779;28;20428;-46
2023/05/17 11:18:53;;;;;;;5.10;3.50;;;17.50;1.00;;;;;;5095164;28;20696;-47
2023/05/17 11:21:21;;;;;;;5.43;3.80;;;17.40;1.00;;;;;;5094158;28;20910;-47
2023/05/17 11:23:47;;;;;;;8.30;3.60;;;17.50;1.00;;;;;;5094952;28;20480;-45
2023/05/17 11:26:33;;;;;;;10.10;3.40;;;17.60;1.00;;;;;;5093983;28;20548;-46
2023/05/17 11:29:09;;;;;;;6.87;3.80;;;17.60;1.00;;;;;;5093656;28;20563;-49
2023/05/17 11:31:36;;;;;;;5.87;4.27;;;17.60;1.00;;;;;;5094140;28;20552;-46
2023/05/17 11:34:03;;;;;;;7.30;4.20;;;17.50;1.00;;;;;;5093428;28;20410;-46
2023/05/17 11:36:29;;;;;;;6.77;3.90;;;17.50;1.00;;;;;;5093048;28;20462;-47
2023/05/17 11:39:12;;;;;;;4.80;3.87;;;17.40;1.00;;;;;;5092089;28;20467;-44
2023/05/17 11:41:41;;;;;;;6.20;3.70;;;17.30;1.00;;;;;;5095150;28;20458;-46
2023/05/17 11:44:08;;;;;;;5.60;3.60;;;17.20;1.00;;;;;;5096529;28;20413;-48
2023/05/17 11:46:34;;;;;;;5.93;4.17;;;17.10;1.00;;;;;;5094608;28;20724;-46
2023/05/17 11:49:01;;;;;;;4.33;2.97;;;17.10;1.00;;;;;;5093753;28;20414;-44
2023/05/17 11:51:30;;;;;;;6.83;3.43;;;17.10;1.00;;;;;;5093361;28;20239;-46
2023/05/17 11:53:56;;;;;;;5.00;3.70;;;17.00;1.00;;;;;;5093362;28;20792;-48
2023/05/17 11:56:23;;;;;;;9.60;4.67;;;16.70;1.00;;;;;;5094134;28;20437;-47
2023/05/17 11:58:54;;;;;;;5.53;4.10;;;16.50;1.00;;;;;;5094021;28;20169;-48
2023/05/17 12:01:20;;;;;;;4.60;3.77;;;16.20;1.00;;;;;;5093184;28;20723;-47
2023/05/17 12:03:48;;;;;;;7.33;4.47;;;16.30;1.00;;;;;;5075487;28;20414;-46
2023/05/17 12:06:16;;;;;;;7.57;4.00;;;16.30;1.00;;;;;;5093564;28;20498;-47
2023/05/17 12:08:45;;;;;;;5.60;3.40;;;16.30;1.00;;;;;;5091002;28;20416;-46
2023/05/17 12:11:18;;;;;;;7.00;3.47;;;16.30;1.00;;;;;;5094217;28;20486;-46
2023/05/17 12:13:45;;;;;;;8.60;4.40;;;16.20;1.00;;;;;;5092550;28;20510;-45
2023/05/17 12:16:12;;;;;;;16.40;4.73;;;16.30;1.00;;;;;;5094662;28;20422;-45
2023/05/17 12:18:50;;;;;;;4.50;3.20;;;16.20;1.00;;;;;;5095526;28;20410;-44
2023/05/17 12:21:20;;;;;;;6.13;3.93;;;16.10;1.00;;;;;;5099084;28;20422;-44
2023/05/17 12:23:46;;;;;;;5.97;4.47;;;16.30;1.00;;;;;;5098658;28;20517;-46
2023/05/17 12:26:14;;;;;;;6.43;4.40;;;16.30;1.00;;;;;;5096399;28;20463;-45
2023/05/17 12:28:46;;;;;;;10.07;4.30;;;15.90;1.00;;;;;;5099116;28;20466;-48
2023/05/17 12:31:13;;;;;;;7.03;3.80;;;15.80;1.00;;;;;;5098545;28;20834;-46
2023/05/17 12:33:41;;;;;;;6.33;3.90;;;15.70;1.00;;;;;;5094631;28;20417;-46
2023/05/17 12:36:08;;;;;;;8.53;4.23;;;15.80;1.00;;;;;;5097029;28;20936;-46
2023/05/17 12:38:35;;;;;;;6.37;3.97;;;15.90;1.00;;;;;;5096354;28;20410;-47
2023/05/17 12:41:02;;;;;;;7.27;4.17;;;16.00;1.00;;;;;;5097891;28;20438;-47
2023/05/17 12:43:30;;;;;;;8.37;4.00;;;16.10;1.00;;;;;;5098350;28;20406;-47
2023/05/17 12:46:08;;;;;;;5.77;3.93;;;16.10;1.00;;;;;;5095987;28;20479;-45
2023/05/17 12:48:42;;;;;;;5.97;4.00;;;16.40;1.00;;;;;;5096692;28;20810;-45
2023/05/17 12:51:22;;;;;;;5.77;3.90;;;16.50;1.00;;;;;;5097948;28;20414;-45
2023/05/17 12:53:55;;;;;;;5.87;4.73;;;16.50;1.00;;;;;;5098749;28;20910;-44
2023/05/17 12:56:23;;;;;;;6.43;3.83;;;16.70;1.00;;;;;;5097355;28;20491;-49
2023/05/17 12:59:15;;;;;;;6.57;4.20;;;16.90;1.00;;;;;;5096343;28;20480;-46
2023/05/17 13:01:48;;;;;;;5.67;4.00;;;17.00;1.00;;;;;;5095938;28;20429;-46